首页
METAR-TAF:

METAR-TAF

机场 :

波尔多, 法国

纬度: 44-50N, 经度: 000-42W, 海拔: 49米

当前天气观测

该预报发布于19分钟前的06:00 UTC
静风
温度 -2°C
湿度 100%
气压 1030 hPa
能見度: 7000

METAR: LFBD 160600Z AUTO 00000KT 7000 NSC M02/M02 Q1030 TEMPO 0800 BCFG

时间: 07:19 (06:19 UTC)

预报

该预报发布于1小时和19分钟前的05:00 UTC
预报有效从16日的 06点(UTC)到 17日的 12点(UTC)
风速3节,风向多变
能见度10公里或以上
1500米以下无云,无积雨云
短暂存在
从 16日的 06点(UTC)到 16日的 08点(UTC)
能見度: 0800
碎片雾
成为
从 16日的 17点(UTC)到 16日的 19点(UTC)
风速10节,风向西转西南
能見度: 4000
多云层高于1400英尺
小雨
短暂存在
从 16日的 21点(UTC)到 17日的 05点(UTC)
能見度: 2000
阴天层高于300英尺
成为
从 17日的 05点(UTC)到 17日的 07点(UTC)
风速5节,风向西北
能见度10公里或以上
多云层高于1000英尺
成为
从 17日的 10点(UTC)到 17日的 12点(UTC)
多云层高于2000英尺

TAF: LFBD 160500Z 1606/1712 VRB03KT CAVOK TX11/1623Z TNM02/1606Z TEMPO 1606/1608 0800 BCFG BECMG 1617/1619 24010KT 4000 -RA BKN014 TEMPO 1621/1705 2000 RA OVC003 BECMG 1705/1707 32005KT 9999 NSW BKN010 BECMG 1710/1712 BKN020

超过4000个机场的气象观测和天气预报(METAR&TAF报告)。

可查询的气象台以黄色和红色小点在地图上表示。

将鼠标移到小点上方,可查看气象台名称。

然后点击查看天气观测和预报。

如需切换地图:点击带黑十字的绿色按钮放大地图;点击带横线的绿色按钮缩小地图;或者点击绿色箭头查看邻近地区的地图。


METAR-TAF: